sensor_id;sensor_type;location;lat;lon;timestamp;temperature;humidity
18597;DHT22;9428;50.950;6.912;2023-06-10T00:00:13;21.50;99.90
18597;DHT22;9428;50.950;6.912;2023-06-10T00:03:02;21.60;99.90
18597;DHT22;9428;50.950;6.912;2023-06-10T00:05:49;21.50;99.90
18597;DHT22;9428;50.950;6.912;2023-06-10T00:08:38;21.60;99.90
18597;DHT22;9428;50.950;6.912;2023-06-10T00:11:25;21.50;99.90
18597;DHT22;9428;50.950;6.912;2023-06-10T00:14:13;21.60;99.90
18597;DHT22;9428;50.950;6.912;2023-06-10T00:17:00;21.50;99.90
18597;DHT22;9428;50.950;6.912;2023-06-10T00:19:48;21.50;99.90
18597;DHT22;9428;50.950;6.912;2023-06-10T00:22:36;21.50;99.90
18597;DHT22;9428;50.950;6.912;2023-06-10T00:25:25;21.50;99.90
18597;DHT22;9428;50.950;6.912;2023-06-10T00:28:12;21.40;99.90
18597;DHT22;9428;50.950;6.912;2023-06-10T00:31:00;21.50;99.90
18597;DHT22;9428;50.950;6.912;2023-06-10T00:33:47;21.40;99.90
18597;DHT22;9428;50.950;6.912;2023-06-10T00:36:34;21.40;99.90
18597;DHT22;9428;50.950;6.912;2023-06-10T00:39:22;21.40;99.90
18597;DHT22;9428;50.950;6.912;2023-06-10T00:42:10;21.40;99.90
18597;DHT22;9428;50.950;6.912;2023-06-10T00:44:58;21.40;99.90
18597;DHT22;9428;50.950;6.912;2023-06-10T00:47:45;21.30;99.90
18597;DHT22;9428;50.950;6.912;2023-06-10T00:50:32;21.30;99.90
18597;DHT22;9428;50.950;6.912;2023-06-10T00:53:21;21.30;99.90
18597;DHT22;9428;50.950;6.912;2023-06-10T00:56:09;20.70;99.90
18597;DHT22;9428;50.950;6.912;2023-06-10T00:58:58;21.20;99.90
18597;DHT22;9428;50.950;6.912;2023-06-10T01:01:46;21.20;99.90
18597;DHT22;9428;50.950;6.912;2023-06-10T01:04:33;21.30;99.90
18597;DHT22;9428;50.950;6.912;2023-06-10T01:07:25;21.20;99.90
18597;DHT22;9428;50.950;6.912;2023-06-10T01:10:18;21.00;99.90
18597;DHT22;9428;50.950;6.912;2023-06-10T01:13:09;21.00;99.90
18597;DHT22;9428;50.950;6.912;2023-06-10T01:15:59;21.20;99.90
18597;DHT22;9428;50.950;6.912;2023-06-10T01:18:46;20.90;99.90
18597;DHT22;9428;50.950;6.912;2023-06-10T01:21:34;20.90;99.90
18597;DHT22;9428;50.950;6.912;2023-06-10T01:24:24;20.80;99.90
18597;DHT22;9428;50.950;6.912;2023-06-10T01:27:15;20.80;99.90
18597;DHT22;9428;50.950;6.912;2023-06-10T01:30:10;20.90;99.90
18597;DHT22;9428;50.950;6.912;2023-06-10T01:33:00;20.90;99.90
18597;DHT22;9428;50.950;6.912;2023-06-10T01:35:49;20.90;99.90
18597;DHT22;9428;50.950;6.912;2023-06-10T01:38:42;20.80;99.90
18597;DHT22;9428;50.950;6.912;2023-06-10T01:41:30;20.70;99.90
18597;DHT22;9428;50.950;6.912;2023-06-10T01:44:18;20.70;99.90
18597;DHT22;9428;50.950;6.912;2023-06-10T01:47:06;20.70;99.90
18597;DHT22;9428;50.950;6.912;2023-06-10T01:49:53;20.60;99.90
18597;DHT22;9428;50.950;6.912;2023-06-10T01:52:40;20.60;99.90
18597;DHT22;9428;50.950;6.912;2023-06-10T01:55:29;20.60;99.90
18597;DHT22;9428;50.950;6.912;2023-06-10T01:58:17;20.60;99.90
18597;DHT22;9428;50.950;6.912;2023-06-10T02:01:04;20.60;99.90
18597;DHT22;9428;50.950;6.912;2023-06-10T02:03:53;20.60;99.90
18597;DHT22;9428;50.950;6.912;2023-06-10T02:06:40;20.50;99.90
18597;DHT22;9428;50.950;6.912;2023-06-10T02:09:27;20.50;99.90
18597;DHT22;9428;50.950;6.912;2023-06-10T02:12:16;20.40;99.90
18597;DHT22;9428;50.950;6.912;2023-06-10T02:15:03;20.30;99.90
18597;DHT22;9428;50.950;6.912;2023-06-10T02:17:51;20.40;99.90
18597;DHT22;9428;50.950;6.912;2023-06-10T02:20:38;20.30;99.90
18597;DHT22;9428;50.950;6.912;2023-06-10T02:23:25;20.30;99.90
18597;DHT22;9428;50.950;6.912;2023-06-10T02:26:12;20.30;99.90
18597;DHT22;9428;50.950;6.912;2023-06-10T02:29:02;20.20;99.90
18597;DHT22;9428;50.950;6.912;2023-06-10T02:31:49;20.20;99.90
18597;DHT22;9428;50.950;6.912;2023-06-10T02:34:38;20.20;99.90
18597;DHT22;9428;50.950;6.912;2023-06-10T02:37:25;20.20;99.90
18597;DHT22;9428;50.950;6.912;2023-06-10T02:40:13;20.10;99.90
18597;DHT22;9428;50.950;6.912;2023-06-10T02:43:00;20.10;99.90
18597;DHT22;9428;50.950;6.912;2023-06-10T02:45:48;20.00;99.90
18597;DHT22;9428;50.950;6.912;2023-06-10T02:48:41;20.00;99.90
18597;DHT22;9428;50.950;6.912;2023-06-10T02:51:29;19.90;99.90
18597;DHT22;9428;50.950;6.912;2023-06-10T02:54:16;19.90;99.90
18597;DHT22;9428;50.950;6.912;2023-06-10T02:57:03;19.90;99.90
18597;DHT22;9428;50.950;6.912;2023-06-10T02:59:51;20.00;99.90
18597;DHT22;9428;50.950;6.912;2023-06-10T03:02:40;19.90;99.90
18597;DHT22;9428;50.950;6.912;2023-06-10T03:05:28;20.00;99.90
18597;DHT22;9428;50.950;6.912;2023-06-10T03:08:15;19.90;99.90
18597;DHT22;9428;50.950;6.912;2023-06-10T03:11:02;19.90;99.90
18597;DHT22;9428;50.950;6.912;2023-06-10T03:13:49;19.80;99.90
18597;DHT22;9428;50.950;6.912;2023-06-10T03:16:37;19.80;99.90
18597;DHT22;9428;50.950;6.912;2023-06-10T03:19:27;19.80;99.90
18597;DHT22;9428;50.950;6.912;2023-06-10T03:22:15;19.70;99.90
18597;DHT22;9428;50.950;6.912;2023-06-10T03:25:03;19.60;99.90
18597;DHT22;9428;50.950;6.912;2023-06-10T03:27:51;19.70;99.90
18597;DHT22;9428;50.950;6.912;2023-06-10T03:30:38;19.50;99.90
18597;DHT22;9428;50.950;6.912;2023-06-10T03:33:25;19.50;99.90
18597;DHT22;9428;50.950;6.912;2023-06-10T03:36:14;19.60;99.90
18597;DHT22;9428;50.950;6.912;2023-06-10T03:39:01;19.60;99.90
18597;DHT22;9428;50.950;6.912;2023-06-10T03:41:48;19.50;99.90
18597;DHT22;9428;50.950;6.912;2023-06-10T03:44:35;19.60;99.90
18597;DHT22;9428;50.950;6.912;2023-06-10T03:47:24;19.60;99.90
18597;DHT22;9428;50.950;6.912;2023-06-10T03:50:11;19.50;99.90
18597;DHT22;9428;50.950;6.912;2023-06-10T03:52:59;19.60;99.90
18597;DHT22;9428;50.950;6.912;2023-06-10T03:55:47;19.60;99.90
18597;DHT22;9428;50.950;6.912;2023-06-10T03:58:34;19.50;99.90
18597;DHT22;9428;50.950;6.912;2023-06-10T04:01:21;19.60;99.90
18597;DHT22;9428;50.950;6.912;2023-06-10T04:04:11;19.50;99.90
18597;DHT22;9428;50.950;6.912;2023-06-10T04:06:59;19.40;99.90
18597;DHT22;9428;50.950;6.912;2023-06-10T04:09:47;19.40;99.90
18597;DHT22;9428;50.950;6.912;2023-06-10T04:12:35;19.40;99.90
18597;DHT22;9428;50.950;6.912;2023-06-10T04:15:22;19.30;99.90
18597;DHT22;9428;50.950;6.912;2023-06-10T04:18:09;19.30;99.90
18597;DHT22;9428;50.950;6.912;2023-06-10T04:20:57;19.40;99.90
18597;DHT22;9428;50.950;6.912;2023-06-10T04:23:44;19.50;99.90
18597;DHT22;9428;50.950;6.912;2023-06-10T04:26:32;19.70;99.90
18597;DHT22;9428;50.950;6.912;2023-06-10T04:29:20;18.80;99.90
18597;DHT22;9428;50.950;6.912;2023-06-10T04:32:07;19.70;99.90
18597;DHT22;9428;50.950;6.912;2023-06-10T04:34:55;19.70;99.90
18597;DHT22;9428;50.950;6.912;2023-06-10T04:37:42;19.60;99.90
18597;DHT22;9428;50.950;6.912;2023-06-10T04:40:29;19.50;99.90
18597;DHT22;9428;50.950;6.912;2023-06-10T04:43:18;19.60;99.90
18597;DHT22;9428;50.950;6.912;2023-06-10T04:46:05;19.70;99.90
18597;DHT22;9428;50.950;6.912;2023-06-10T04:48:56;19.80;99.90
18597;DHT22;9428;50.950;6.912;2023-06-10T04:51:43;19.70;99.90
18597;DHT22;9428;50.950;6.912;2023-06-10T04:54:30;19.80;99.90
18597;DHT22;9428;50.950;6.912;2023-06-10T04:57:18;19.80;99.90
18597;DHT22;9428;50.950;6.912;2023-06-10T05:00:08;19.80;99.90
18597;DHT22;9428;50.950;6.912;2023-06-10T05:02:56;19.80;99.90
18597;DHT22;9428;50.950;6.912;2023-06-10T05:05:43;19.90;99.90
18597;DHT22;9428;50.950;6.912;2023-06-10T05:08:30;20.00;99.90
18597;DHT22;9428;50.950;6.912;2023-06-10T05:11:17;20.00;99.90
18597;DHT22;9428;50.950;6.912;2023-06-10T05:14:05;20.30;99.90
18597;DHT22;9428;50.950;6.912;2023-06-10T05:16:53;20.00;99.90
18597;DHT22;9428;50.950;6.912;2023-06-10T05:19:40;20.00;99.90
18597;DHT22;9428;50.950;6.912;2023-06-10T05:22:29;20.10;99.90
18597;DHT22;9428;50.950;6.912;2023-06-10T05:25:16;20.20;99.90
18597;DHT22;9428;50.950;6.912;2023-06-10T05:28:04;20.30;99.90
18597;DHT22;9428;50.950;6.912;2023-06-10T05:30:55;20.30;99.90
18597;DHT22;9428;50.950;6.912;2023-06-10T05:33:44;20.40;99.90
18597;DHT22;9428;50.950;6.912;2023-06-10T05:36:31;20.40;99.90
18597;DHT22;9428;50.950;6.912;2023-06-10T05:39:18;20.40;99.90
18597;DHT22;9428;50.950;6.912;2023-06-10T05:42:06;20.40;99.90
18597;DHT22;9428;50.950;6.912;2023-06-10T05:44:54;20.50;99.90
18597;DHT22;9428;50.950;6.912;2023-06-10T05:47:41;20.60;99.90
18597;DHT22;9428;50.950;6.912;2023-06-10T05:50:29;20.70;99.90
18597;DHT22;9428;50.950;6.912;2023-06-10T05:53:17;20.70;99.90
18597;DHT22;9428;50.950;6.912;2023-06-10T05:56:04;20.80;99.90
18597;DHT22;9428;50.950;6.912;2023-06-10T05:58:51;20.90;99.90
18597;DHT22;9428;50.950;6.912;2023-06-10T06:01:38;20.80;99.90
18597;DHT22;9428;50.950;6.912;2023-06-10T06:04:26;20.90;99.90
18597;DHT22;9428;50.950;6.912;2023-06-10T06:07:15;21.00;99.90
18597;DHT22;9428;50.950;6.912;2023-06-10T06:10:02;21.00;99.90
18597;DHT22;9428;50.950;6.912;2023-06-10T06:12:49;21.10;99.90
18597;DHT22;9428;50.950;6.912;2023-06-10T06:15:37;21.20;99.90
18597;DHT22;9428;50.950;6.912;2023-06-10T06:18:24;21.20;99.90
18597;DHT22;9428;50.950;6.912;2023-06-10T06:21:11;21.30;99.90
18597;DHT22;9428;50.950;6.912;2023-06-10T06:24:00;21.50;99.90
18597;DHT22;9428;50.950;6.912;2023-06-10T06:26:47;21.50;99.90
18597;DHT22;9428;50.950;6.912;2023-06-10T06:29:34;21.60;99.90
18597;DHT22;9428;50.950;6.912;2023-06-10T06:32:25;21.60;99.90
18597;DHT22;9428;50.950;6.912;2023-06-10T06:35:13;21.70;99.90
18597;DHT22;9428;50.950;6.912;2023-06-10T06:38:00;21.70;99.90
18597;DHT22;9428;50.950;6.912;2023-06-10T06:40:51;21.80;99.90
18597;DHT22;9428;50.950;6.912;2023-06-10T06:43:38;21.80;99.90
18597;DHT22;9428;50.950;6.912;2023-06-10T06:46:26;21.90;99.90
18597;DHT22;9428;50.950;6.912;2023-06-10T06:49:14;22.00;99.90
18597;DHT22;9428;50.950;6.912;2023-06-10T06:52:01;22.10;99.90
18597;DHT22;9428;50.950;6.912;2023-06-10T06:54:49;22.10;99.90
18597;DHT22;9428;50.950;6.912;2023-06-10T06:57:37;22.20;99.90
18597;DHT22;9428;50.950;6.912;2023-06-10T07:00:24;22.30;99.90
18597;DHT22;9428;50.950;6.912;2023-06-10T07:03:12;22.30;99.90
18597;DHT22;9428;50.950;6.912;2023-06-10T07:05:59;22.30;99.90
18597;DHT22;9428;50.950;6.912;2023-06-10T07:08:46;22.40;99.90
18597;DHT22;9428;50.950;6.912;2023-06-10T07:11:33;22.50;99.90
18597;DHT22;9428;50.950;6.912;2023-06-10T07:14:22;22.60;99.90
18597;DHT22;9428;50.950;6.912;2023-06-10T07:17:09;22.60;99.90
18597;DHT22;9428;50.950;6.912;2023-06-10T07:19:56;22.70;99.90
18597;DHT22;9428;50.950;6.912;2023-06-10T07:22:45;22.80;99.90
18597;DHT22;9428;50.950;6.912;2023-06-10T07:25:32;22.70;99.90
18597;DHT22;9428;50.950;6.912;2023-06-10T07:28:19;22.80;99.90
18597;DHT22;9428;50.950;6.912;2023-06-10T07:31:08;22.80;99.90
18597;DHT22;9428;50.950;6.912;2023-06-10T07:33:57;23.00;99.90
18597;DHT22;9428;50.950;6.912;2023-06-10T07:36:44;23.10;99.90
18597;DHT22;9428;50.950;6.912;2023-06-10T07:39:33;23.10;99.90
18597;DHT22;9428;50.950;6.912;2023-06-10T07:42:20;23.10;99.90
18597;DHT22;9428;50.950;6.912;2023-06-10T07:45:08;23.10;99.90
18597;DHT22;9428;50.950;6.912;2023-06-10T07:47:56;23.30;99.90
18597;DHT22;9428;50.950;6.912;2023-06-10T07:50:44;23.30;99.90
18597;DHT22;9428;50.950;6.912;2023-06-10T07:53:31;23.40;99.90
18597;DHT22;9428;50.950;6.912;2023-06-10T07:56:18;23.40;99.90
18597;DHT22;9428;50.950;6.912;2023-06-10T07:59:07;23.40;99.90
18597;DHT22;9428;50.950;6.912;2023-06-10T08:01:54;23.40;99.90
18597;DHT22;9428;50.950;6.912;2023-06-10T08:04:43;23.50;99.90
18597;DHT22;9428;50.950;6.912;2023-06-10T08:07:30;23.50;99.90
18597;DHT22;9428;50.950;6.912;2023-06-10T08:10:17;23.60;99.90
18597;DHT22;9428;50.950;6.912;2023-06-10T08:13:05;23.70;99.90
18597;DHT22;9428;50.950;6.912;2023-06-10T08:15:52;23.80;99.90
18597;DHT22;9428;50.950;6.912;2023-06-10T08:18:41;24.20;99.90
18597;DHT22;9428;50.950;6.912;2023-06-10T08:21:29;24.10;99.90
18597;DHT22;9428;50.950;6.912;2023-06-10T08:24:17;24.30;99.90
18597;DHT22;9428;50.950;6.912;2023-06-10T08:27:05;24.20;99.90
18597;DHT22;9428;50.950;6.912;2023-06-10T08:29:52;24.50;99.90
18597;DHT22;9428;50.950;6.912;2023-06-10T08:32:40;24.50;99.90
18597;DHT22;9428;50.950;6.912;2023-06-10T08:35:27;24.20;99.90
18597;DHT22;9428;50.950;6.912;2023-06-10T08:38:15;24.20;99.90
18597;DHT22;9428;50.950;6.912;2023-06-10T08:41:05;24.30;99.90
18597;DHT22;9428;50.950;6.912;2023-06-10T08:43:58;24.30;99.90
18597;DHT22;9428;50.950;6.912;2023-06-10T08:46:47;24.00;99.90
18597;DHT22;9428;50.950;6.912;2023-06-10T08:49:38;23.90;99.90
18597;DHT22;9428;50.950;6.912;2023-06-10T08:52:29;24.00;99.90
18597;DHT22;9428;50.950;6.912;2023-06-10T08:55:25;24.00;99.90
18597;DHT22;9428;50.950;6.912;2023-06-10T08:58:13;23.80;99.90
18597;DHT22;9428;50.950;6.912;2023-06-10T09:01:01;24.00;99.90
18597;DHT22;9428;50.950;6.912;2023-06-10T09:03:49;24.00;99.90
18597;DHT22;9428;50.950;6.912;2023-06-10T09:06:37;24.30;99.90
18597;DHT22;9428;50.950;6.912;2023-06-10T09:09:26;24.40;99.90
18597;DHT22;9428;50.950;6.912;2023-06-10T09:12:18;24.60;99.90
18597;DHT22;9428;50.950;6.912;2023-06-10T09:15:06;24.40;99.90
18597;DHT22;9428;50.950;6.912;2023-06-10T09:17:53;24.40;99.90
18597;DHT22;9428;50.950;6.912;2023-06-10T09:20:42;24.40;99.90
18597;DHT22;9428;50.950;6.912;2023-06-10T09:23:30;24.40;99.90
18597;DHT22;9428;50.950;6.912;2023-06-10T09:26:18;24.40;99.90
18597;DHT22;9428;50.950;6.912;2023-06-10T09:29:07;24.90;99.90
18597;DHT22;9428;50.950;6.912;2023-06-10T09:31:56;24.80;99.90
18597;DHT22;9428;50.950;6.912;2023-06-10T09:34:43;24.90;99.90
18597;DHT22;9428;50.950;6.912;2023-06-10T09:37:31;24.90;99.90
18597;DHT22;9428;50.950;6.912;2023-06-10T09:40:18;25.00;99.90
18597;DHT22;9428;50.950;6.912;2023-06-10T09:43:06;25.20;99.90
18597;DHT22;9428;50.950;6.912;2023-06-10T09:45:56;25.20;99.90
18597;DHT22;9428;50.950;6.912;2023-06-10T09:48:44;25.20;99.90
18597;DHT22;9428;50.950;6.912;2023-06-10T09:51:32;25.30;99.90
18597;DHT22;9428;50.950;6.912;2023-06-10T09:54:20;25.20;99.90
18597;DHT22;9428;50.950;6.912;2023-06-10T09:57:08;25.30;99.90
18597;DHT22;9428;50.950;6.912;2023-06-10T09:59:55;25.40;99.90
18597;DHT22;9428;50.950;6.912;2023-06-10T10:02:48;25.50;99.90
18597;DHT22;9428;50.950;6.912;2023-06-10T10:05:36;25.50;99.90
18597;DHT22;9428;50.950;6.912;2023-06-10T10:08:23;25.50;99.90
18597;DHT22;9428;50.950;6.912;2023-06-10T10:11:11;25.50;99.90
18597;DHT22;9428;50.950;6.912;2023-06-10T10:13:59;25.40;99.90
18597;DHT22;9428;50.950;6.912;2023-06-10T10:16:47;25.50;99.90
18597;DHT22;9428;50.950;6.912;2023-06-10T10:19:43;25.80;99.90
18597;DHT22;9428;50.950;6.912;2023-06-10T10:22:37;25.90;99.90
18597;DHT22;9428;50.950;6.912;2023-06-10T10:25:28;25.90;99.90
18597;DHT22;9428;50.950;6.912;2023-06-10T10:28:16;25.90;99.90
18597;DHT22;9428;50.950;6.912;2023-06-10T10:31:09;26.10;99.90
18597;DHT22;9428;50.950;6.912;2023-06-10T10:33:59;26.40;99.90
18597;DHT22;9428;50.950;6.912;2023-06-10T10:36:48;25.70;99.90
18597;DHT22;9428;50.950;6.912;2023-06-10T10:39:36;25.50;99.90
18597;DHT22;9428;50.950;6.912;2023-06-10T10:42:24;25.90;99.90
18597;DHT22;9428;50.950;6.912;2023-06-10T10:45:11;25.90;99.90
18597;DHT22;9428;50.950;6.912;2023-06-10T10:48:05;25.90;99.90
18597;DHT22;9428;50.950;6.912;2023-06-10T10:50:57;25.90;99.90
18597;DHT22;9428;50.950;6.912;2023-06-10T10:54:12;26.00;99.90
18597;DHT22;9428;50.950;6.912;2023-06-10T10:57:17;26.40;99.90
18597;DHT22;9428;50.950;6.912;2023-06-10T11:00:05;26.40;99.90
18597;DHT22;9428;50.950;6.912;2023-06-10T11:02:53;26.40;99.90
18597;DHT22;9428;50.950;6.912;2023-06-10T11:05:45;26.70;99.90
18597;DHT22;9428;50.950;6.912;2023-06-10T11:08:50;26.80;99.90
18597;DHT22;9428;50.950;6.912;2023-06-10T11:11:49;27.10;97.90
18597;DHT22;9428;50.950;6.912;2023-06-10T11:14:37;27.30;95.00
18597;DHT22;9428;50.950;6.912;2023-06-10T11:17:25;27.30;94.10
18597;DHT22;9428;50.950;6.912;2023-06-10T11:20:12;27.30;93.50
18597;DHT22;9428;50.950;6.912;2023-06-10T11:23:33;27.50;91.80
18597;DHT22;9428;50.950;6.912;2023-06-10T11:26:30;27.90;91.50
18597;DHT22;9428;50.950;6.912;2023-06-10T11:29:21;27.90;90.50
18597;DHT22;9428;50.950;6.912;2023-06-10T11:32:09;27.80;89.30
18597;DHT22;9428;50.950;6.912;2023-06-10T11:34:56;27.80;88.40
18597;DHT22;9428;50.950;6.912;2023-06-10T11:37:43;27.90;86.70
18597;DHT22;9428;50.950;6.912;2023-06-10T11:40:31;27.90;89.00
18597;DHT22;9428;50.950;6.912;2023-06-10T11:43:21;27.60;87.00
18597;DHT22;9428;50.950;6.912;2023-06-10T11:46:08;27.30;87.90
18597;DHT22;9428;50.950;6.912;2023-06-10T11:48:57;27.10;87.40
18597;DHT22;9428;50.950;6.912;2023-06-10T11:51:44;27.10;86.60
18597;DHT22;9428;50.950;6.912;2023-06-10T11:54:35;27.20;86.90
18597;DHT22;9428;50.950;6.912;2023-06-10T11:57:22;27.50;83.60
18597;DHT22;9428;50.950;6.912;2023-06-10T12:00:13;27.30;82.10
18597;DHT22;9428;50.950;6.912;2023-06-10T12:03:00;27.20;81.90
18597;DHT22;9428;50.950;6.912;2023-06-10T12:05:57;27.30;81.60
18597;DHT22;9428;50.950;6.912;2023-06-10T12:08:45;27.30;81.50
18597;DHT22;9428;50.950;6.912;2023-06-10T12:11:32;27.30;80.30
18597;DHT22;9428;50.950;6.912;2023-06-10T12:14:51;27.20;80.90
18597;DHT22;9428;50.950;6.912;2023-06-10T12:17:42;27.30;83.20
18597;DHT22;9428;50.950;6.912;2023-06-10T12:20:31;27.20;83.80
18597;DHT22;9428;50.950;6.912;2023-06-10T12:23:19;27.20;85.10
18597;DHT22;9428;50.950;6.912;2023-06-10T12:26:08;27.20;85.40
18597;DHT22;9428;50.950;6.912;2023-06-10T12:28:56;27.10;86.20
18597;DHT22;9428;50.950;6.912;2023-06-10T12:32:00;27.10;87.30
18597;DHT22;9428;50.950;6.912;2023-06-10T12:34:49;27.10;88.00
18597;DHT22;9428;50.950;6.912;2023-06-10T12:37:37;27.10;86.70
18597;DHT22;9428;50.950;6.912;2023-06-10T12:40:28;27.10;86.50
18597;DHT22;9428;50.950;6.912;2023-06-10T12:43:19;27.00;86.60
18597;DHT22;9428;50.950;6.912;2023-06-10T12:46:09;26.90;86.20
18597;DHT22;9428;50.950;6.912;2023-06-10T12:48:58;27.10;83.90
18597;DHT22;9428;50.950;6.912;2023-06-10T12:51:47;27.10;83.00
18597;DHT22;9428;50.950;6.912;2023-06-10T12:54:34;27.10;83.30
18597;DHT22;9428;50.950;6.912;2023-06-10T12:57:22;27.00;81.40
18597;DHT22;9428;50.950;6.912;2023-06-10T13:00:10;27.00;81.40
18597;DHT22;9428;50.950;6.912;2023-06-10T13:03:00;27.00;82.10
18597;DHT22;9428;50.950;6.912;2023-06-10T13:05:48;27.30;79.70
18597;DHT22;9428;50.950;6.912;2023-06-10T13:08:36;27.20;77.80
18597;DHT22;9428;50.950;6.912;2023-06-10T13:11:24;27.40;76.40
18597;DHT22;9428;50.950;6.912;2023-06-10T13:14:11;27.50;76.70
18597;DHT22;9428;50.950;6.912;2023-06-10T13:16:59;27.70;72.50
18597;DHT22;9428;50.950;6.912;2023-06-10T13:19:46;27.60;69.40
18597;DHT22;9428;50.950;6.912;2023-06-10T13:22:34;27.50;69.20
18597;DHT22;9428;50.950;6.912;2023-06-10T13:25:23;28.00;69.80
18597;DHT22;9428;50.950;6.912;2023-06-10T13:28:11;28.00;69.10
18597;DHT22;9428;50.950;6.912;2023-06-10T13:30:58;28.20;68.40
18597;DHT22;9428;50.950;6.912;2023-06-10T13:33:45;28.20;68.70
18597;DHT22;9428;50.950;6.912;2023-06-10T13:36:32;28.30;66.90
18597;DHT22;9428;50.950;6.912;2023-06-10T13:39:20;28.40;65.10
18597;DHT22;9428;50.950;6.912;2023-06-10T13:42:09;28.20;67.30
18597;DHT22;9428;50.950;6.912;2023-06-10T13:44:56;28.10;68.00
18597;DHT22;9428;50.950;6.912;2023-06-10T13:47:44;28.00;69.00
18597;DHT22;9428;50.950;6.912;2023-06-10T13:50:31;28.00;68.30
18597;DHT22;9428;50.950;6.912;2023-06-10T13:53:19;28.10;68.00
18597;DHT22;9428;50.950;6.912;2023-06-10T13:56:06;27.90;67.60
18597;DHT22;9428;50.950;6.912;2023-06-10T13:58:55;27.70;67.20
18597;DHT22;9428;50.950;6.912;2023-06-10T14:01:42;27.70;68.20
18597;DHT22;9428;50.950;6.912;2023-06-10T14:04:29;27.90;67.70
18597;DHT22;9428;50.950;6.912;2023-06-10T14:07:16;27.50;68.70
18597;DHT22;9428;50.950;6.912;2023-06-10T14:10:04;27.30;69.70
18597;DHT22;9428;50.950;6.912;2023-06-10T14:12:51;27.50;68.20
18597;DHT22;9428;50.950;6.912;2023-06-10T14:15:40;27.60;69.80
18597;DHT22;9428;50.950;6.912;2023-06-10T14:18:28;27.70;68.30
18597;DHT22;9428;50.950;6.912;2023-06-10T14:21:15;27.90;66.50
18597;DHT22;9428;50.950;6.912;2023-06-10T14:24:02;28.00;65.80
18597;DHT22;9428;50.950;6.912;2023-06-10T14:26:49;27.90;64.30
18597;DHT22;9428;50.950;6.912;2023-06-10T14:29:37;28.00;64.60
18597;DHT22;9428;50.950;6.912;2023-06-10T14:32:25;28.20;67.10
18597;DHT22;9428;50.950;6.912;2023-06-10T14:35:12;28.10;67.20
18597;DHT22;9428;50.950;6.912;2023-06-10T14:37:59;28.20;67.10
18597;DHT22;9428;50.950;6.912;2023-06-10T14:40:47;28.30;65.90
18597;DHT22;9428;50.950;6.912;2023-06-10T14:43:34;28.50;66.90
18597;DHT22;9428;50.950;6.912;2023-06-10T14:46:21;28.30;68.10
18597;DHT22;9428;50.950;6.912;2023-06-10T14:49:10;28.10;69.60
18597;DHT22;9428;50.950;6.912;2023-06-10T14:51:57;28.10;68.30
18597;DHT22;9428;50.950;6.912;2023-06-10T14:54:44;28.40;66.20
18597;DHT22;9428;50.950;6.912;2023-06-10T14:57:31;28.40;67.00
18597;DHT22;9428;50.950;6.912;2023-06-10T15:00:19;28.20;67.50
18597;DHT22;9428;50.950;6.912;2023-06-10T15:03:08;28.10;68.80
18597;DHT22;9428;50.950;6.912;2023-06-10T15:05:56;28.40;68.10
18597;DHT22;9428;50.950;6.912;2023-06-10T15:08:44;28.50;65.10
18597;DHT22;9428;50.950;6.912;2023-06-10T15:11:31;28.20;66.50
18597;DHT22;9428;50.950;6.912;2023-06-10T15:14:19;28.30;65.80
18597;DHT22;9428;50.950;6.912;2023-06-10T15:17:06;28.30;64.50
18597;DHT22;9428;50.950;6.912;2023-06-10T15:19:53;28.00;64.30
18597;DHT22;9428;50.950;6.912;2023-06-10T15:22:42;27.90;64.90
18597;DHT22;9428;50.950;6.912;2023-06-10T15:25:29;27.90;65.60
18597;DHT22;9428;50.950;6.912;2023-06-10T15:28:16;28.00;66.10
18597;DHT22;9428;50.950;6.912;2023-06-10T15:31:03;27.90;66.00
18597;DHT22;9428;50.950;6.912;2023-06-10T15:33:50;28.10;65.00
18597;DHT22;9428;50.950;6.912;2023-06-10T15:36:38;28.10;66.30
18597;DHT22;9428;50.950;6.912;2023-06-10T15:39:26;28.30;66.40
18597;DHT22;9428;50.950;6.912;2023-06-10T15:42:16;28.20;67.00
18597;DHT22;9428;50.950;6.912;2023-06-10T15:45:04;28.30;67.80
18597;DHT22;9428;50.950;6.912;2023-06-10T15:47:51;28.20;67.90
18597;DHT22;9428;50.950;6.912;2023-06-10T15:50:38;28.40;67.50
18597;DHT22;9428;50.950;6.912;2023-06-10T15:53:25;28.50;65.00
18597;DHT22;9428;50.950;6.912;2023-06-10T15:56:14;28.30;64.80
18597;DHT22;9428;50.950;6.912;2023-06-10T15:59:01;28.10;65.30
18597;DHT22;9428;50.950;6.912;2023-06-10T16:01:49;28.20;64.70
18597;DHT22;9428;50.950;6.912;2023-06-10T16:04:36;27.80;64.80
18597;DHT22;9428;50.950;6.912;2023-06-10T16:07:23;27.80;65.80
18597;DHT22;9428;50.950;6.912;2023-06-10T16:10:13;27.80;65.60
18597;DHT22;9428;50.950;6.912;2023-06-10T16:13:01;27.80;65.60
18597;DHT22;9428;50.950;6.912;2023-06-10T16:15:49;27.90;65.20
18597;DHT22;9428;50.950;6.912;2023-06-10T16:18:36;27.80;64.20
18597;DHT22;9428;50.950;6.912;2023-06-10T16:21:23;27.80;63.80
18597;DHT22;9428;50.950;6.912;2023-06-10T16:24:11;27.70;63.40
18597;DHT22;9428;50.950;6.912;2023-06-10T16:26:58;27.70;63.90
18597;DHT22;9428;50.950;6.912;2023-06-10T16:29:46;27.70;64.00
18597;DHT22;9428;50.950;6.912;2023-06-10T16:32:34;27.70;64.20
18597;DHT22;9428;50.950;6.912;2023-06-10T16:35:21;27.90;62.70
18597;DHT22;9428;50.950;6.912;2023-06-10T16:38:08;28.00;61.70
18597;DHT22;9428;50.950;6.912;2023-06-10T16:40:55;28.20;61.60
18597;DHT22;9428;50.950;6.912;2023-06-10T16:43:43;28.00;63.00
18597;DHT22;9428;50.950;6.912;2023-06-10T16:46:32;28.00;63.60
18597;DHT22;9428;50.950;6.912;2023-06-10T16:49:19;28.10;63.70
18597;DHT22;9428;50.950;6.912;2023-06-10T16:52:06;28.10;63.40
18597;DHT22;9428;50.950;6.912;2023-06-10T16:54:54;28.20;63.70
18597;DHT22;9428;50.950;6.912;2023-06-10T16:57:41;28.10;64.30
18597;DHT22;9428;50.950;6.912;2023-06-10T17:00:28;27.80;64.70
18597;DHT22;9428;50.950;6.912;2023-06-10T17:03:17;27.60;65.20
18597;DHT22;9428;50.950;6.912;2023-06-10T17:06:04;27.70;65.30
18597;DHT22;9428;50.950;6.912;2023-06-10T17:08:51;27.70;63.10
18597;DHT22;9428;50.950;6.912;2023-06-10T17:11:38;27.90;62.30
18597;DHT22;9428;50.950;6.912;2023-06-10T17:14:25;27.80;60.80
18597;DHT22;9428;50.950;6.912;2023-06-10T17:17:14;27.70;60.60
18597;DHT22;9428;50.950;6.912;2023-06-10T17:20:04;27.90;61.50
18597;DHT22;9428;50.950;6.912;2023-06-10T17:22:51;28.10;62.50
18597;DHT22;9428;50.950;6.912;2023-06-10T17:25:38;27.90;63.50
18597;DHT22;9428;50.950;6.912;2023-06-10T17:28:26;27.90;64.60
18597;DHT22;9428;50.950;6.912;2023-06-10T17:31:13;28.00;63.60
18597;DHT22;9428;50.950;6.912;2023-06-10T17:34:00;28.10;63.00
18597;DHT22;9428;50.950;6.912;2023-06-10T17:36:49;28.00;63.70
18597;DHT22;9428;50.950;6.912;2023-06-10T17:39:36;27.80;64.40
18597;DHT22;9428;50.950;6.912;2023-06-10T17:42:23;27.60;65.40
18597;DHT22;9428;50.950;6.912;2023-06-10T17:45:10;27.60;65.80
18597;DHT22;9428;50.950;6.912;2023-06-10T17:47:57;27.90;66.00
18597;DHT22;9428;50.950;6.912;2023-06-10T17:50:45;27.80;65.90
18597;DHT22;9428;50.950;6.912;2023-06-10T17:53:33;27.80;66.20
18597;DHT22;9428;50.950;6.912;2023-06-10T17:56:20;27.90;66.50
18597;DHT22;9428;50.950;6.912;2023-06-10T17:59:08;27.70;66.40